Time;durP1;ratioP1;P1;durP2;ratioP2;P2;SDS_P1;SDS_P2;PMS_P1;PMS_P2;Temp;Humidity;BMP_temperature;BMP_pressure;BME280_temperature;BME280_humidity;BME280_pressure;Samples;Min_cycle;Max_cycle;Signal;HPM_P1;HPM_P2
2021/08/28 00:00:36;;;;;;;0.10;0.10;;;15.80;99.90;;;;;;5113122;28;20500;-91
2021/08/28 00:03:02;;;;;;;0.10;0.10;;;15.80;99.90;;;;;;5115516;28;20096;-91
2021/08/28 00:05:28;;;;;;;0.10;0.10;;;15.80;99.90;;;;;;5113059;28;20054;-91
2021/08/28 00:07:55;;;;;;;0.10;0.10;;;15.80;99.90;;;;;;5112848;28;20079;-91
2021/08/28 00:10:22;;;;;;;0.10;0.10;;;15.80;99.90;;;;;;5112852;28;20031;-92
2021/08/28 00:12:48;;;;;;;0.00;0.00;;;15.70;99.90;;;;;;5113181;28;20028;-91
2021/08/28 00:15:14;;;;;;;0.00;0.00;;;15.70;99.90;;;;;;5113000;28;20039;-91
2021/08/28 00:17:41;;;;;;;0.08;0.08;;;15.70;99.90;;;;;;5113041;28;20414;-92
2021/08/28 00:20:09;;;;;;;0.00;0.00;;;15.70;99.90;;;;;;5112953;28;20030;-92
2021/08/28 00:22:35;;;;;;;0.00;0.00;;;15.70;99.90;;;;;;5112762;28;20061;-92
2021/08/28 00:25:01;;;;;;;0.10;0.10;;;15.70;99.90;;;;;;5113003;28;20020;-91
2021/08/28 00:27:26;;;;;;;0.10;0.10;;;15.70;99.90;;;;;;5112869;28;20035;-92
2021/08/28 00:29:52;;;;;;;0.10;0.10;;;15.70;99.90;;;;;;5112947;28;20024;-92
2021/08/28 00:32:18;;;;;;;0.10;0.10;;;15.70;99.90;;;;;;5115961;28;20031;-91
2021/08/28 00:34:43;;;;;;;0.10;0.10;;;15.60;99.90;;;;;;5116771;28;20027;-92
2021/08/28 00:37:09;;;;;;;0.10;0.10;;;15.60;99.90;;;;;;5116775;28;20562;-91
2021/08/28 00:39:35;;;;;;;0.10;0.10;;;15.60;99.90;;;;;;5116617;28;20031;-91
2021/08/28 00:42:00;;;;;;;0.10;0.10;;;15.60;99.90;;;;;;5116585;28;20027;-91
2021/08/28 00:44:26;;;;;;;0.10;0.10;;;15.60;99.90;;;;;;5116634;28;20061;-92
2021/08/28 00:46:56;;;;;;;0.10;0.10;;;15.60;99.90;;;;;;5117013;28;20024;-91
2021/08/28 00:49:23;;;;;;;0.00;0.00;;;15.60;99.90;;;;;;5118140;28;20027;-92
2021/08/28 00:51:48;;;;;;;0.10;0.10;;;15.60;99.90;;;;;;5117166;28;20035;-91
2021/08/28 00:54:14;;;;;;;0.10;0.10;;;15.60;99.90;;;;;;5117018;28;20032;-92
2021/08/28 00:56:41;;;;;;;0.03;0.03;;;15.60;99.90;;;;;;5116840;28;20431;-92
2021/08/28 00:59:07;;;;;;;0.10;0.10;;;15.50;99.90;;;;;;5116463;28;20031;-92
2021/08/28 01:01:37;;;;;;;0.10;0.10;;;15.50;99.90;;;;;;5116747;28;20028;-92
2021/08/28 01:04:06;;;;;;;0.10;0.10;;;15.50;99.90;;;;;;5117563;28;20134;-92
2021/08/28 01:07:08;;;;;;;0.10;0.10;;;15.50;99.90;;;;;;5116452;28;20028;-92
2021/08/28 01:09:36;;;;;;;0.10;0.10;;;15.50;99.90;;;;;;5115943;28;20032;-91
2021/08/28 01:12:22;;;;;;;0.03;0.03;;;15.50;99.90;;;;;;5115966;28;20024;-91
2021/08/28 01:14:55;;;;;;;0.10;0.10;;;15.50;99.90;;;;;;5115856;28;20030;-90
2021/08/28 01:17:22;;;;;;;0.00;0.00;;;15.50;99.90;;;;;;5115892;28;20028;-91
2021/08/28 01:20:06;;;;;;;0.10;0.10;;;15.40;99.90;;;;;;5115926;28;20436;-90
2021/08/28 01:22:39;;;;;;;0.10;0.10;;;15.40;99.90;;;;;;5115801;28;20485;-90
2021/08/28 01:25:06;;;;;;;0.10;0.10;;;15.40;99.90;;;;;;5115766;28;20040;-90
2021/08/28 01:27:40;;;;;;;0.10;0.10;;;15.40;99.90;;;;;;5115761;28;20028;-91
2021/08/28 01:30:07;;;;;;;0.10;0.10;;;15.40;99.90;;;;;;5115702;28;20024;-90
2021/08/28 01:32:33;;;;;;;0.10;0.10;;;15.40;99.90;;;;;;5115780;28;20027;-90
2021/08/28 01:35:00;;;;;;;0.10;0.10;;;15.40;99.90;;;;;;5116789;28;20019;-90
2021/08/28 01:37:26;;;;;;;0.10;0.10;;;15.30;99.90;;;;;;5116412;28;20388;-91
2021/08/28 01:39:55;;;;;;;0.00;0.00;;;15.30;99.90;;;;;;5115944;28;20043;-91
2021/08/28 01:42:23;;;;;;;0.03;0.03;;;15.20;99.90;;;;;;5114976;28;20576;-91
2021/08/28 01:44:51;;;;;;;0.10;0.10;;;15.30;99.90;;;;;;5115621;28;20023;-91
2021/08/28 01:47:18;;;;;;;0.00;0.00;;;15.30;99.90;;;;;;5115465;28;20068;-91
2021/08/28 01:49:47;;;;;;;0.10;0.10;;;15.30;99.90;;;;;;5115486;28;20148;-91
2021/08/28 01:52:17;;;;;;;0.05;0.05;;;15.30;99.90;;;;;;5115509;28;20019;-91
2021/08/28 01:54:43;;;;;;;0.10;0.10;;;15.30;99.90;;;;;;5116920;28;20020;-91
2021/08/28 01:57:10;;;;;;;0.00;0.00;;;15.30;99.90;;;;;;5115382;28;20020;-92
2021/08/28 01:59:36;;;;;;;0.03;0.03;;;15.30;99.90;;;;;;5115419;28;20016;-92
2021/08/28 02:02:03;;;;;;;0.10;0.10;;;15.30;99.90;;;;;;5115598;28;20465;-91
2021/08/28 02:04:28;;;;;;;0.10;0.10;;;15.30;99.90;;;;;;5116965;28;20020;-92
2021/08/28 02:07:03;;;;;;;0.00;0.00;;;15.40;99.90;;;;;;5115569;28;20032;-92
2021/08/28 02:09:50;;;;;;;0.10;0.10;;;15.40;99.90;;;;;;5115534;28;20051;-91
2021/08/28 02:12:25;;;;;;;0.03;0.03;;;15.50;99.90;;;;;;5115301;28;20085;-92
2021/08/28 02:15:01;;;;;;;0.10;0.10;;;15.60;99.90;;;;;;5115194;28;20096;-91
2021/08/28 02:17:29;;;;;;;0.03;0.03;;;15.70;99.90;;;;;;5115466;28;20024;-91
2021/08/28 02:20:01;;;;;;;0.10;0.10;;;15.80;99.90;;;;;;5115072;28;20028;-91
2021/08/28 02:22:30;;;;;;;0.10;0.10;;;15.90;99.90;;;;;;5116127;28;20484;-91
2021/08/28 02:25:05;;;;;;;0.03;0.03;;;16.00;99.90;;;;;;5114502;28;20023;-91
2021/08/28 02:27:45;;;;;;;0.10;0.10;;;16.10;99.90;;;;;;5114931;28;20026;-90
2021/08/28 02:30:13;;;;;;;0.10;0.10;;;16.10;99.90;;;;;;5114679;28;20086;-90
2021/08/28 02:32:40;;;;;;;0.08;0.08;;;16.20;99.90;;;;;;5114477;28;20426;-90
2021/08/28 02:35:08;;;;;;;0.10;0.10;;;16.30;99.90;;;;;;5115450;28;20031;-88
2021/08/28 02:37:37;;;;;;;0.10;0.10;;;16.40;99.90;;;;;;5115546;28;20470;-88
2021/08/28 02:40:07;;;;;;;0.10;0.10;;;16.50;99.90;;;;;;5113972;28;20043;-89
2021/08/28 02:42:34;;;;;;;0.10;0.10;;;16.60;99.90;;;;;;5115249;28;20036;-88
2021/08/28 02:45:01;;;;;;;0.00;0.00;;;16.70;99.90;;;;;;5114003;28;20084;-91
2021/08/28 02:47:29;;;;;;;0.10;0.10;;;16.80;99.90;;;;;;5114077;28;20028;-89
2021/08/28 02:49:56;;;;;;;0.00;0.00;;;16.90;99.90;;;;;;5114048;28;20346;-89
2021/08/28 02:52:24;;;;;;;0.10;0.10;;;16.90;99.90;;;;;;5114157;28;20073;-90
2021/08/28 02:54:52;;;;;;;0.10;0.10;;;17.00;99.90;;;;;;5113648;28;20035;-88
2021/08/28 02:57:18;;;;;;;0.10;0.10;;;17.00;99.90;;;;;;5113710;28;20023;-88
2021/08/28 02:59:44;;;;;;;0.00;0.00;;;17.10;99.90;;;;;;5113600;28;20488;-90
2021/08/28 03:02:10;;;;;;;0.00;0.00;;;17.20;99.90;;;;;;5113529;28;20031;-91
2021/08/28 03:04:37;;;;;;;0.00;0.00;;;17.20;99.90;;;;;;5114896;28;20091;-90
2021/08/28 03:07:05;;;;;;;0.00;0.00;;;17.20;99.90;;;;;;5113509;28;20024;-90
2021/08/28 03:09:32;;;;;;;0.10;0.10;;;17.30;99.90;;;;;;5114663;28;20414;-90
2021/08/28 03:11:58;;;;;;;0.10;0.10;;;17.30;99.90;;;;;;5113480;28;20031;-91
2021/08/28 03:14:25;;;;;;;0.08;0.08;;;17.30;99.90;;;;;;5114590;28;20064;-91
2021/08/28 03:16:53;;;;;;;0.10;0.10;;;17.40;99.90;;;;;;5113543;28;20027;-89
2021/08/28 03:19:23;;;;;;;0.10;0.10;;;17.40;99.90;;;;;;5113652;28;20031;-90
2021/08/28 03:21:51;;;;;;;0.00;0.00;;;17.40;99.90;;;;;;5113608;28;20031;-90
2021/08/28 03:24:23;;;;;;;0.10;0.10;;;17.50;99.90;;;;;;5113336;28;20085;-89
2021/08/28 03:26:51;;;;;;;0.10;0.10;;;17.50;99.90;;;;;;5114212;28;20023;-89
2021/08/28 03:29:20;;;;;;;0.00;0.00;;;17.50;99.90;;;;;;5122136;28;20050;-88
2021/08/28 03:31:46;;;;;;;0.10;0.10;;;17.60;99.90;;;;;;5121612;28;20110;-89
2021/08/28 03:34:14;;;;;;;0.10;0.10;;;17.70;99.90;;;;;;5120353;28;20057;-92
2021/08/28 03:36:42;;;;;;;0.10;0.10;;;17.80;99.90;;;;;;5114274;28;20024;-91
2021/08/28 03:39:08;;;;;;;0.10;0.10;;;17.90;98.90;;;;;;5113161;28;20459;-90
2021/08/28 03:41:33;;;;;;;0.10;0.10;;;17.90;98.80;;;;;;5113319;28;20027;-92
2021/08/28 03:43:59;;;;;;;0.10;0.10;;;18.00;98.80;;;;;;5114177;28;20088;-88
2021/08/28 03:46:25;;;;;;;0.03;0.03;;;18.00;98.50;;;;;;5114707;28;20019;-89
2021/08/28 03:48:51;;;;;;;0.10;0.10;;;18.00;97.80;;;;;;5112899;28;20030;-88
2021/08/28 03:51:17;;;;;;;0.10;0.10;;;18.00;96.80;;;;;;5112767;28;20392;-89
2021/08/28 03:53:42;;;;;;;0.00;0.00;;;18.00;96.20;;;;;;5112726;28;20031;-89
2021/08/28 03:56:08;;;;;;;0.10;0.10;;;18.00;96.40;;;;;;5112986;28;20488;-89
2021/08/28 03:58:34;;;;;;;0.10;0.10;;;18.00;96.50;;;;;;5112843;28;20055;-90
2021/08/28 04:01:00;;;;;;;0.03;0.03;;;18.00;96.60;;;;;;5112940;28;20030;-92
2021/08/28 04:03:26;;;;;;;0.10;0.10;;;18.00;96.50;;;;;;5124523;22;20023;-87
2021/08/28 04:05:52;;;;;;;0.10;0.10;;;18.00;96.40;;;;;;5093996;28;20032;-88
2021/08/28 04:08:17;;;;;;;0.10;0.10;;;18.10;95.20;;;;;;5076781;28;20024;-85
2021/08/28 04:10:43;;;;;;;0.10;0.10;;;18.20;95.20;;;;;;5078153;28;20489;-87
2021/08/28 04:13:09;;;;;;;0.10;0.10;;;18.30;94.70;;;;;;5079986;28;20376;-88
2021/08/28 04:15:35;;;;;;;0.10;0.10;;;18.40;94.70;;;;;;5078782;28;20036;-86
2021/08/28 04:18:00;;;;;;;0.10;0.10;;;18.50;94.50;;;;;;5080569;28;20053;-86
2021/08/28 04:20:26;;;;;;;0.10;0.10;;;18.60;93.80;;;;;;5089197;28;20032;-86
2021/08/28 04:22:52;;;;;;;0.00;0.00;;;18.70;93.60;;;;;;5091928;28;20036;-89
2021/08/28 04:25:18;;;;;;;0.08;0.08;;;18.70;93.90;;;;;;5086311;28;20024;-87
2021/08/28 04:27:43;;;;;;;0.10;0.10;;;18.70;93.60;;;;;;5088046;28;20038;-86
2021/08/28 04:30:10;;;;;;;0.00;0.00;;;18.90;92.70;;;;;;5092145;28;20080;-86
2021/08/28 04:32:36;;;;;;;0.10;0.10;;;18.90;91.90;;;;;;5095060;28;20050;-87
2021/08/28 04:35:02;;;;;;;0.00;0.00;;;18.90;91.50;;;;;;5092971;28;20497;-88
2021/08/28 04:37:27;;;;;;;0.00;0.00;;;18.90;90.90;;;;;;5092438;28;20053;-88
2021/08/28 04:39:53;;;;;;;0.10;0.10;;;18.80;90.90;;;;;;5093901;28;20024;-89
2021/08/28 04:42:19;;;;;;;0.00;0.00;;;18.70;91.20;;;;;;5098995;28;20016;-88
2021/08/28 04:44:44;;;;;;;0.08;0.08;;;18.70;91.20;;;;;;5099201;28;20035;-86
2021/08/28 04:47:10;;;;;;;0.00;0.00;;;18.80;90.80;;;;;;5098576;28;20033;-88
2021/08/28 04:49:36;;;;;;;0.03;0.03;;;18.90;91.00;;;;;;5097879;28;20032;-90
2021/08/28 04:52:02;;;;;;;0.10;0.10;;;19.10;91.40;;;;;;5076767;28;20031;-89
2021/08/28 04:54:28;;;;;;;0.03;0.03;;;19.40;91.20;;;;;;5076840;28;20115;-89
2021/08/28 04:56:54;;;;;;;0.00;0.00;;;19.70;91.00;;;;;;5077383;28;20128;-89
2021/08/28 04:59:20;;;;;;;0.00;0.00;;;20.00;89.90;;;;;;5076697;28;20042;-89
2021/08/28 05:01:45;;;;;;;0.00;0.00;;;20.10;84.90;;;;;;5083866;28;20034;-87
2021/08/28 05:04:11;;;;;;;0.00;0.00;;;20.00;83.40;;;;;;5094493;28;20056;-87
2021/08/28 05:06:37;;;;;;;0.00;0.00;;;19.90;83.00;;;;;;5094978;28;20028;-87
2021/08/28 05:09:03;;;;;;;0.05;0.05;;;19.80;83.00;;;;;;5096710;28;20024;-86
2021/08/28 05:11:29;;;;;;;0.00;0.00;;;19.70;83.80;;;;;;5098842;28;20024;-88
2021/08/28 05:13:54;;;;;;;0.03;0.03;;;19.60;84.20;;;;;;5100612;28;20017;-89
2021/08/28 05:16:20;;;;;;;0.10;0.10;;;19.50;83.70;;;;;;5099019;28;20046;-86
2021/08/28 05:18:46;;;;;;;0.00;0.00;;;19.40;83.80;;;;;;5100648;28;20024;-88
2021/08/28 05:21:11;;;;;;;0.10;0.10;;;19.40;84.00;;;;;;5102508;28;20020;-88
2021/08/28 05:23:37;;;;;;;0.00;0.00;;;19.60;85.00;;;;;;5099041;28;20108;-86
2021/08/28 05:26:03;;;;;;;0.10;0.10;;;20.20;83.50;;;;;;5086904;28;20473;-85
2021/08/28 05:28:29;;;;;;;0.10;0.10;;;20.70;83.10;;;;;;5095681;28;20024;-88
2021/08/28 05:30:55;;;;;;;0.00;0.00;;;21.30;82.10;;;;;;5091685;28;20065;-88
2021/08/28 05:33:21;;;;;;;0.03;0.03;;;21.80;77.90;;;;;;5085165;28;20480;-90
2021/08/28 05:35:46;;;;;;;0.00;0.00;;;22.20;77.30;;;;;;5091792;28;20031;-88
2021/08/28 05:38:12;;;;;;;0.00;0.00;;;22.70;74.50;;;;;;5092061;28;20093;-88
2021/08/28 05:40:38;;;;;;;0.00;0.00;;;22.90;73.40;;;;;;5080272;28;20049;-87
2021/08/28 05:43:04;;;;;;;0.00;0.00;;;23.30;71.50;;;;;;5091860;28;20047;-88
2021/08/28 05:45:33;;;;;;;0.10;0.10;;;23.50;69.80;;;;;;5105643;28;20020;-88
2021/08/28 05:47:58;;;;;;;0.00;0.00;;;23.60;69.20;;;;;;5100489;28;20380;-88
2021/08/28 05:50:27;;;;;;;0.00;0.00;;;23.80;69.00;;;;;;5083704;28;20048;-87
2021/08/28 05:52:55;;;;;;;0.00;0.00;;;23.90;67.40;;;;;;5080886;28;20020;-89
2021/08/28 05:55:20;;;;;;;0.00;0.00;;;24.10;67.00;;;;;;5084054;28;20382;-88
2021/08/28 05:57:46;;;;;;;0.00;0.00;;;24.10;67.10;;;;;;5080244;28;20108;-87
2021/08/28 06:00:12;;;;;;;0.00;0.00;;;24.20;67.00;;;;;;5080388;28;20035;-86
2021/08/28 06:02:39;;;;;;;0.00;0.00;;;24.40;66.60;;;;;;5104365;28;20401;-88
2021/08/28 06:05:09;;;;;;;0.00;0.00;;;24.60;67.20;;;;;;5082439;28;20499;-90
2021/08/28 06:07:36;;;;;;;0.00;0.00;;;25.10;66.70;;;;;;5080055;28;20042;-89
2021/08/28 06:10:03;;;;;;;0.00;0.00;;;25.30;65.60;;;;;;5079793;28;20019;-87
2021/08/28 06:12:29;;;;;;;0.00;0.00;;;25.60;66.20;;;;;;5082321;28;20051;-87
2021/08/28 06:14:55;;;;;;;0.00;0.00;;;26.10;65.00;;;;;;5083907;28;20024;-88
2021/08/28 06:17:21;;;;;;;0.00;0.00;;;26.50;64.60;;;;;;5107542;28;20016;-87
2021/08/28 06:19:46;;;;;;;0.00;0.00;;;26.70;63.30;;;;;;5091996;28;20024;-87
2021/08/28 06:22:12;;;;;;;0.00;0.00;;;26.30;63.00;;;;;;5095244;28;20011;-89
2021/08/28 06:24:38;;;;;;;0.00;0.00;;;26.20;64.30;;;;;;5098716;28;20046;-87
2021/08/28 06:27:04;;;;;;;0.00;0.00;;;26.20;64.20;;;;;;5098783;28;20032;-89
2021/08/28 06:29:30;;;;;;;0.00;0.00;;;26.60;64.10;;;;;;5094695;28;20568;-89
2021/08/28 06:31:56;;;;;;;0.00;0.00;;;26.40;62.30;;;;;;5079082;28;20045;-89
2021/08/28 06:34:22;;;;;;;0.00;0.00;;;26.10;63.00;;;;;;5078910;28;20119;-87
2021/08/28 06:36:48;;;;;;;0.00;0.00;;;25.80;62.50;;;;;;5079797;28;20024;-86
2021/08/28 06:39:16;;;;;;;0.00;0.00;;;25.40;62.80;;;;;;5079702;28;20123;-88
2021/08/28 06:41:45;;;;;;;0.00;0.00;;;25.10;64.00;;;;;;5088030;28;20023;-89
2021/08/28 06:44:11;;;;;;;0.00;0.00;;;24.90;64.70;;;;;;5094453;28;20051;-89
2021/08/28 06:46:36;;;;;;;0.00;0.00;;;24.90;66.00;;;;;;5096203;28;20491;-87
2021/08/28 06:49:03;;;;;;;0.00;0.00;;;25.00;66.00;;;;;;5097712;28;20075;-88
2021/08/28 06:51:36;;;;;;;0.00;0.00;;;25.10;64.90;;;;;;5117371;28;20018;-87
2021/08/28 06:54:03;;;;;;;0.00;0.00;;;25.10;64.40;;;;;;5089401;28;20119;-87
2021/08/28 06:56:38;;;;;;;0.00;0.00;;;25.00;64.90;;;;;;5089444;28;20029;-89
2021/08/28 06:59:04;;;;;;;0.00;0.00;;;25.20;63.60;;;;;;5083023;28;20073;-88
2021/08/28 07:01:31;;;;;;;0.00;0.00;;;25.20;63.80;;;;;;5090888;28;20024;-88
2021/08/28 07:03:57;;;;;;;0.03;0.00;;;25.40;64.00;;;;;;5090940;28;20054;-87
2021/08/28 07:06:29;;;;;;;0.00;0.00;;;25.90;64.60;;;;;;5085281;28;20021;-89
2021/08/28 07:08:58;;;;;;;0.00;0.00;;;26.60;63.20;;;;;;5083510;28;20024;-87
2021/08/28 07:11:26;;;;;;;0.00;0.00;;;27.30;62.80;;;;;;5081969;28;20044;-89
2021/08/28 07:13:52;;;;;;;0.00;0.00;;;28.10;61.70;;;;;;5082409;28;20071;-89
2021/08/28 07:16:21;;;;;;;0.00;0.00;;;28.80;60.70;;;;;;5088002;28;20024;-87
2021/08/28 07:18:47;;;;;;;0.00;0.00;;;29.30;58.00;;;;;;5094718;28;20099;-87
2021/08/28 07:21:14;;;;;;;0.00;0.00;;;29.30;57.60;;;;;;5108719;28;20032;-86
2021/08/28 07:23:39;;;;;;;0.00;0.00;;;29.30;57.00;;;;;;5092824;28;20040;-87
2021/08/28 07:26:05;;;;;;;0.00;0.00;;;29.50;58.20;;;;;;5093250;28;20054;-86
2021/08/28 07:28:31;;;;;;;0.00;0.00;;;30.00;57.00;;;;;;5097262;28;20020;-89
2021/08/28 07:30:57;;;;;;;0.00;0.00;;;30.20;55.50;;;;;;5117707;28;20100;-89
2021/08/28 07:33:23;;;;;;;0.00;0.00;;;30.10;54.40;;;;;;5098819;28;20016;-87
2021/08/28 07:35:48;;;;;;;0.00;0.00;;;29.70;55.20;;;;;;5098678;28;20117;-88
2021/08/28 07:38:17;;;;;;;0.00;0.00;;;29.70;56.30;;;;;;5079958;28;20044;-90
2021/08/28 07:40:43;;;;;;;0.00;0.00;;;29.70;54.90;;;;;;5083919;28;20024;-86
2021/08/28 07:43:09;;;;;;;0.00;0.00;;;29.40;56.20;;;;;;5090181;28;20042;-90
2021/08/28 07:45:41;;;;;;;0.00;0.00;;;29.60;57.10;;;;;;5081280;28;20095;-88
2021/08/28 07:48:07;;;;;;;0.00;0.00;;;29.90;56.10;;;;;;5078639;28;20119;-88
2021/08/28 07:50:33;;;;;;;0.00;0.00;;;29.90;56.30;;;;;;5078930;28;20051;-89
2021/08/28 07:53:06;;;;;;;0.00;0.00;;;30.00;56.20;;;;;;5080175;28;20507;-90
2021/08/28 07:55:32;;;;;;;0.00;0.00;;;30.10;56.30;;;;;;5078927;28;20028;-89
2021/08/28 07:57:58;;;;;;;0.00;0.00;;;30.10;56.30;;;;;;5079390;28;20089;-88
2021/08/28 08:00:27;;;;;;;0.00;0.00;;;30.10;56.00;;;;;;5079404;28;20028;-89
2021/08/28 08:02:52;;;;;;;0.00;0.00;;;30.00;55.60;;;;;;5064557;28;20044;-88
2021/08/28 08:05:18;;;;;;;0.00;0.00;;;30.10;56.30;;;;;;5078067;28;20073;-89
2021/08/28 08:07:44;;;;;;;0.00;0.00;;;30.30;56.20;;;;;;5078128;28;20077;-89
2021/08/28 08:10:10;;;;;;;0.00;0.00;;;30.50;55.30;;;;;;5078852;28;20087;-88
2021/08/28 08:12:36;;;;;;;0.00;0.00;;;30.30;54.90;;;;;;5078584;28;20467;-89
2021/08/28 08:15:02;;;;;;;0.00;0.00;;;30.00;55.90;;;;;;5064186;28;20097;-89
2021/08/28 08:17:28;;;;;;;0.00;0.00;;;29.90;56.30;;;;;;5078654;28;20043;-89
2021/08/28 08:19:54;;;;;;;0.00;0.00;;;29.60;56.30;;;;;;5063177;28;20032;-89
2021/08/28 08:22:21;;;;;;;0.00;0.00;;;29.70;57.40;;;;;;5086462;28;20039;-87
2021/08/28 08:24:47;;;;;;;0.00;0.00;;;30.30;57.70;;;;;;5092390;28;20100;-88
2021/08/28 08:27:13;;;;;;;0.00;0.00;;;30.80;56.60;;;;;;5073471;28;20120;-90
2021/08/28 08:29:39;;;;;;;0.00;0.00;;;31.40;56.20;;;;;;5103097;28;20052;-88
2021/08/28 08:32:05;;;;;;;0.00;0.00;;;31.90;54.40;;;;;;5079398;28;20149;-88
2021/08/28 08:34:31;;;;;;;0.00;0.00;;;32.00;54.10;;;;;;5077709;28;20028;-87
2021/08/28 08:36:56;;;;;;;0.00;0.00;;;32.30;54.20;;;;;;5076788;28;20112;-88
2021/08/28 08:39:22;;;;;;;0.00;0.00;;;32.70;53.80;;;;;;5074972;28;20025;-89
2021/08/28 08:41:49;;;;;;;0.10;0.10;;;33.00;53.20;;;;;;5076625;28;20034;-88
2021/08/28 08:44:16;;;;;;;0.00;0.00;;;33.30;52.90;;;;;;5096074;28;20032;-87
2021/08/28 08:46:44;;;;;;;0.00;0.00;;;33.50;51.60;;;;;;5077006;28;20027;-87
2021/08/28 08:49:12;;;;;;;0.00;0.00;;;33.40;51.30;;;;;;5088735;28;20921;-88
2021/08/28 08:51:38;;;;;;;0.00;0.00;;;33.50;51.40;;;;;;5077342;28;20024;-89
2021/08/28 08:54:04;;;;;;;0.00;0.00;;;33.50;52.00;;;;;;5079834;28;20140;-88
2021/08/28 08:56:33;;;;;;;0.00;0.00;;;33.70;51.70;;;;;;5099195;28;20020;-89
2021/08/28 08:59:00;;;;;;;0.00;0.00;;;33.70;50.90;;;;;;5080553;28;20455;-88
2021/08/28 09:01:26;;;;;;;0.00;0.00;;;33.40;51.50;;;;;;5081717;28;20112;-90
2021/08/28 09:03:54;;;;;;;0.00;0.00;;;33.40;51.60;;;;;;5084869;28;20059;-88
2021/08/28 09:06:20;;;;;;;0.00;0.00;;;33.50;51.90;;;;;;5083536;28;20555;-90
2021/08/28 09:08:47;;;;;;;0.00;0.00;;;33.70;51.70;;;;;;5079105;28;20028;-89
2021/08/28 09:11:30;;;;;;;0.00;0.00;;;33.90;51.70;;;;;;5110322;28;20039;-86
2021/08/28 09:14:21;;;;;;;0.00;0.00;;;34.50;50.90;;;;;;5118238;28;20061;-87
2021/08/28 09:16:51;;;;;;;0.00;0.00;;;34.70;50.10;;;;;;5090871;28;20023;-87
2021/08/28 09:19:18;;;;;;;0.00;0.00;;;34.90;49.90;;;;;;5092202;28;20039;-88
2021/08/28 09:21:44;;;;;;;0.00;0.00;;;34.70;50.30;;;;;;5080680;28;20027;-87
2021/08/28 09:24:12;;;;;;;0.00;0.00;;;34.40;49.30;;;;;;5077876;28;20157;-88
2021/08/28 09:26:41;;;;;;;0.10;0.10;;;33.70;49.80;;;;;;5078108;28;20020;-87
2021/08/28 09:29:09;;;;;;;0.00;0.00;;;33.00;50.30;;;;;;5077457;28;20197;-88
2021/08/28 09:31:49;;;;;;;0.00;0.00;;;32.50;51.70;;;;;;5078096;28;20115;-88
2021/08/28 09:34:21;;;;;;;0.00;0.00;;;33.00;52.40;;;;;;5081552;28;20024;-91
2021/08/28 09:37:01;;;;;;;0.00;0.00;;;33.50;50.80;;;;;;5085249;28;20099;-87
2021/08/28 09:39:45;;;;;;;0.00;0.00;;;32.80;50.70;;;;;;5073831;28;20047;-87
2021/08/28 09:42:24;;;;;;;0.00;0.00;;;32.30;52.10;;;;;;5091985;28;20077;-90
2021/08/28 09:44:52;;;;;;;0.10;0.10;;;32.80;52.00;;;;;;5060784;28;20040;-87
2021/08/28 09:47:22;;;;;;;0.00;0.00;;;33.20;51.10;;;;;;5078571;28;20119;-91
2021/08/28 09:49:49;;;;;;;0.00;0.00;;;33.30;50.60;;;;;;5084904;28;20022;-91
2021/08/28 09:52:24;;;;;;;0.00;0.00;;;33.50;50.80;;;;;;5078331;28;20058;-87
2021/08/28 09:54:51;;;;;;;0.00;0.00;;;34.10;49.50;;;;;;5078084;28;20093;-89
2021/08/28 09:57:17;;;;;;;0.08;0.08;;;34.30;48.90;;;;;;5061114;28;20024;-89
2021/08/28 09:59:44;;;;;;;0.00;0.00;;;34.50;49.00;;;;;;5082931;28;20131;-90
2021/08/28 10:02:12;;;;;;;0.10;0.10;;;34.70;48.50;;;;;;5081326;28;20035;-89
2021/08/28 10:04:48;;;;;;;0.10;0.10;;;34.90;48.30;;;;;;5083249;28;20044;-91
2021/08/28 10:07:19;;;;;;;0.00;0.00;;;35.30;47.80;;;;;;5081453;28;20533;-86
2021/08/28 10:09:45;;;;;;;0.05;0.05;;;35.70;47.50;;;;;;5080639;28;20427;-88
2021/08/28 10:12:17;;;;;;;0.10;0.10;;;36.00;46.60;;;;;;5076033;28;20028;-89
2021/08/28 10:14:44;;;;;;;0.10;0.10;;;36.30;46.60;;;;;;5076834;28;20016;-88
2021/08/28 10:17:11;;;;;;;0.10;0.10;;;37.00;45.00;;;;;;5076508;28;20421;-89
2021/08/28 10:19:37;;;;;;;0.10;0.10;;;37.00;44.60;;;;;;5074604;28;20024;-87
2021/08/28 10:22:03;;;;;;;0.10;0.10;;;36.30;44.30;;;;;;5074308;28;20661;-89
2021/08/28 10:24:29;;;;;;;0.00;0.00;;;35.80;44.80;;;;;;5074021;28;20028;-90
2021/08/28 10:26:55;;;;;;;0.00;0.00;;;35.60;45.80;;;;;;5073489;28;20099;-89
2021/08/28 10:29:22;;;;;;;0.00;0.00;;;35.20;46.00;;;;;;5091986;28;20050;-87
2021/08/28 10:31:50;;;;;;;0.00;0.00;;;35.00;46.60;;;;;;5080713;28;20019;-88
2021/08/28 10:34:17;;;;;;;0.10;0.10;;;35.10;46.80;;;;;;5085659;28;20020;-88
2021/08/28 10:36:43;;;;;;;0.00;0.00;;;35.70;47.00;;;;;;5075717;28;20020;-87
2021/08/28 10:39:09;;;;;;;0.00;0.00;;;36.00;46.10;;;;;;5077174;28;20424;-87
2021/08/28 10:41:37;;;;;;;0.10;0.10;;;36.40;46.20;;;;;;5097113;28;20028;-90
2021/08/28 10:44:03;;;;;;;0.10;0.10;;;37.10;45.60;;;;;;5076095;28;20061;-88
2021/08/28 10:46:31;;;;;;;0.00;0.00;;;37.50;44.20;;;;;;5076750;28;20429;-88
2021/08/28 10:49:01;;;;;;;0.10;0.10;;;37.50;44.50;;;;;;5078623;28;20538;-90
2021/08/28 10:51:30;;;;;;;0.10;0.10;;;37.70;44.10;;;;;;5079432;28;20028;-88
2021/08/28 10:54:01;;;;;;;0.10;0.10;;;37.80;43.50;;;;;;5081508;28;20040;-87
2021/08/28 10:56:46;;;;;;;0.10;0.10;;;37.70;44.40;;;;;;5095445;28;20028;-89
2021/08/28 10:59:32;;;;;;;0.03;0.03;;;38.20;44.50;;;;;;5083694;28;20050;-88
2021/08/28 11:02:01;;;;;;;0.00;0.00;;;39.00;43.90;;;;;;5082886;28;20061;-90
2021/08/28 11:04:34;;;;;;;0.10;0.10;;;39.30;43.20;;;;;;5093481;28;20028;-88
2021/08/28 11:07:17;;;;;;;;;;;38.80;43.10;;;;;;5086315;28;20122;-89
2021/08/28 11:10:19;;;;;;;0.00;0.00;;;39.10;44.10;;;;;;5077812;28;19904;-87
2021/08/28 11:13:03;;;;;;;0.10;0.10;;;39.50;42.30;;;;;;5076493;28;20044;-88
2021/08/28 11:15:33;;;;;;;0.00;0.00;;;38.90;41.60;;;;;;5076653;28;20028;-90
2021/08/28 11:18:06;;;;;;;0.10;0.10;;;38.50;42.20;;;;;;5076498;28;20036;-88
2021/08/28 11:20:52;;;;;;;;;;;38.10;42.70;;;;;;5094488;28;20084;-90
2021/08/28 11:23:20;;;;;;;0.10;0.10;;;38.00;42.90;;;;;;5075760;28;19927;-89
2021/08/28 11:25:50;;;;;;;0.00;0.00;;;38.20;43.20;;;;;;5077586;28;20046;-88
2021/08/28 11:28:20;;;;;;;0.00;0.00;;;38.40;42.30;;;;;;5084040;28;20064;-88
2021/08/28 11:30:46;;;;;;;0.00;0.00;;;37.70;41.90;;;;;;5095764;28;20095;-87
2021/08/28 11:33:24;;;;;;;0.00;0.00;;;36.50;43.00;;;;;;5084723;28;20032;-87
2021/08/28 11:35:54;;;;;;;0.00;0.00;;;35.60;44.10;;;;;;5078106;28;20073;-87
2021/08/28 11:38:26;;;;;;;0.00;0.00;;;34.80;44.50;;;;;;5080439;28;20427;-88
2021/08/28 11:41:07;;;;;;;0.00;0.00;;;34.00;45.20;;;;;;5082263;28;20028;-86
2021/08/28 11:43:43;;;;;;;0.00;0.00;;;33.20;46.20;;;;;;5080852;28;20040;-85
2021/08/28 11:46:15;;;;;;;0.00;0.00;;;33.10;47.20;;;;;;5070021;28;20051;-88
2021/08/28 11:48:44;;;;;;;0.00;0.00;;;33.50;46.80;;;;;;5080749;28;20134;-88
2021/08/28 11:51:14;;;;;;;0.00;0.00;;;34.20;47.00;;;;;;5091048;28;20028;-88
2021/08/28 11:53:41;;;;;;;0.03;0.03;;;35.30;46.20;;;;;;5096793;28;20036;-87
2021/08/28 11:56:12;;;;;;;0.00;0.00;;;36.30;45.30;;;;;;5098701;28;20032;-88
2021/08/28 11:58:57;;;;;;;0.05;0.05;;;37.20;44.00;;;;;;5089770;28;20361;-87
2021/08/28 12:01:36;;;;;;;0.00;0.00;;;37.90;42.90;;;;;;5092170;28;20036;-87
2021/08/28 12:04:18;;;;;;;0.10;0.10;;;38.40;42.20;;;;;;5083184;28;20507;-90
2021/08/28 12:06:50;;;;;;;0.10;0.10;;;38.80;42.00;;;;;;5077775;28;20043;-90
2021/08/28 12:09:16;;;;;;;0.00;0.00;;;39.10;41.30;;;;;;5079628;28;20032;-90
2021/08/28 12:11:47;;;;;;;0.10;0.10;;;39.30;41.20;;;;;;5080071;28;20038;-87
2021/08/28 12:14:13;;;;;;;0.10;0.10;;;38.90;40.20;;;;;;5081396;28;20054;-87
2021/08/28 12:16:41;;;;;;;0.00;0.00;;;38.50;40.90;;;;;;5084708;28;20054;-90
2021/08/28 12:19:25;;;;;;;0.00;0.00;;;38.50;40.60;;;;;;5091187;28;20039;-87
2021/08/28 12:21:52;;;;;;;0.00;0.00;;;38.30;40.30;;;;;;5094106;28;20028;-87
2021/08/28 12:24:20;;;;;;;0.00;0.00;;;37.80;41.30;;;;;;5092344;28;20051;-86
2021/08/28 12:27:02;;;;;;;0.00;0.00;;;38.10;41.30;;;;;;5096072;28;20008;-87
2021/08/28 12:29:33;;;;;;;0.08;0.08;;;39.10;40.40;;;;;;5081156;28;20028;-89
2021/08/28 12:31:59;;;;;;;0.10;0.10;;;39.40;39.30;;;;;;5096989;28;20024;-87
2021/08/28 12:34:30;;;;;;;0.10;0.10;;;39.30;39.00;;;;;;5095901;28;20032;-89
2021/08/28 12:36:57;;;;;;;0.10;0.10;;;39.00;39.20;;;;;;5090427;28;20028;-89
2021/08/28 12:39:23;;;;;;;0.00;0.00;;;38.20;39.40;;;;;;5088462;28;20122;-88
2021/08/28 12:41:49;;;;;;;0.00;0.00;;;37.60;40.10;;;;;;5081291;28;20386;-88
2021/08/28 12:44:16;;;;;;;0.05;0.05;;;37.70;40.70;;;;;;5080692;28;20173;-89
2021/08/28 12:46:46;;;;;;;0.00;0.00;;;38.50;40.70;;;;;;5080368;28;20031;-92
2021/08/28 12:49:23;;;;;;;0.10;0.10;;;39.20;39.70;;;;;;5083405;28;20024;-88
2021/08/28 12:51:54;;;;;;;0.10;0.10;;;39.20;39.20;;;;;;5094468;28;20032;-90
2021/08/28 12:54:28;;;;;;;0.00;0.00;;;39.30;39.80;;;;;;5080845;28;20484;-87